Conesville, Iowa
Current Conditions -  °F | °C
As of 12:15 PM on Friday 19 Dec 2014 (Local Time) from KMUT Reporting Station
Clear Clear  
Wind Chill:   Ceiling: Unl
Heat Index:   Visibility: 10mi
Dew Point: -7°   Wind: 0mph
Humidity: 60%   Direction: NA
Pressure: 30.3"   Gusts: NA
Location:  41.38°N, 91.35°W
Report Text: KMUT 191815Z AUTO 00000KT 10SM CLR 00/M07 A3030 RMK AO2
Loading
Personal Weather Stations






























Interactive Weather Map New forecast layout! Learn more

10-Day Weather Forecast

Advertisements
Track Severe Weather on mobile